Time;durP1;ratioP1;P1;durP2;ratioP2;P2;SDS_P1;SDS_P2;PMS_P1;PMS_P2;Temp;Humidity;BMP_temperature;BMP_pressure;BME280_temperature;BME280_humidity;BME280_pressure;Samples;Min_cycle;Max_cycle;Signal;HPM_P1;HPM_P2
2021/08/22 00:02:24;;;;;;;21.80;19.70;;;20.90;99.90;;;;;;4992681;28;20215;-62
2021/08/22 00:04:49;;;;;;;24.67;22.00;;;20.90;99.90;;;;;;4992711;28;20180;-63
2021/08/22 00:07:15;;;;;;;33.93;30.23;;;21.10;99.90;;;;;;4992652;28;20175;-62
2021/08/22 00:09:40;;;;;;;24.27;21.93;;;21.10;99.90;;;;;;4992407;28;20176;-62
2021/08/22 00:12:06;;;;;;;24.10;20.27;;;21.10;99.90;;;;;;4992715;28;20833;-62
2021/08/22 00:14:31;;;;;;;17.60;15.67;;;21.10;99.90;;;;;;4992680;28;20168;-62
2021/08/22 00:16:57;;;;;;;17.80;13.83;;;21.10;99.90;;;;;;4992679;28;20164;-62
2021/08/22 00:19:22;;;;;;;11.07;10.17;;;21.10;99.90;;;;;;4992347;28;20171;-62
2021/08/22 00:21:48;;;;;;;9.43;8.57;;;20.90;99.90;;;;;;4992380;28;20191;-62
2021/08/22 00:24:13;;;;;;;11.20;10.20;;;20.50;99.90;;;;;;4992557;28;20226;-63
2021/08/22 00:26:39;;;;;;;10.90;9.90;;;20.20;99.90;;;;;;4992631;28;20242;-62
2021/08/22 00:29:05;;;;;;;10.60;9.60;;;19.80;99.90;;;;;;4992413;28;20179;-62
2021/08/22 00:31:30;;;;;;;8.83;7.67;;;19.40;99.90;;;;;;4992359;28;20212;-62
2021/08/22 00:33:56;;;;;;;12.00;6.70;;;18.90;99.90;;;;;;4993081;28;20263;-61
2021/08/22 00:36:21;;;;;;;6.17;4.83;;;18.60;99.90;;;;;;4992322;28;20591;-61
2021/08/22 00:38:47;;;;;;;7.10;5.60;;;18.30;99.90;;;;;;4992202;28;20664;-62
2021/08/22 00:41:14;;;;;;;5.80;5.17;;;18.00;99.90;;;;;;4992402;28;20191;-63
2021/08/22 00:43:43;;;;;;;9.03;5.90;;;17.70;99.90;;;;;;4992390;28;20421;-62
2021/08/22 00:46:09;;;;;;;5.60;4.23;;;17.60;99.90;;;;;;4992390;28;20962;-62
2021/08/22 00:48:35;;;;;;;6.57;4.10;;;17.40;99.90;;;;;;4992072;28;20837;-62
2021/08/22 00:51:00;;;;;;;5.83;5.00;;;17.40;99.90;;;;;;4992048;28;20552;-62
2021/08/22 00:53:27;;;;;;;5.10;4.70;;;17.40;99.90;;;;;;4992431;28;20274;-62
2021/08/22 00:55:53;;;;;;;5.90;4.40;;;17.40;99.90;;;;;;4994754;28;20207;-62
2021/08/22 00:58:19;;;;;;;5.60;5.10;;;17.50;99.90;;;;;;4995937;28;20411;-61
2021/08/22 01:00:48;;;;;;;5.47;4.70;;;17.40;99.90;;;;;;4995785;28;20492;-62
2021/08/22 01:03:19;;;;;;;5.43;4.97;;;17.40;99.90;;;;;;4996077;28;20187;-62
2021/08/22 01:06:00;;;;;;;6.40;5.00;;;17.30;99.90;;;;;;4995900;28;20445;-62
2021/08/22 01:08:31;;;;;;;5.40;4.67;;;17.30;99.90;;;;;;4995758;28;20422;-62
2021/08/22 01:11:02;;;;;;;6.20;5.60;;;17.50;99.90;;;;;;4995800;28;20466;-61
2021/08/22 01:13:33;;;;;;;5.63;5.13;;;17.60;99.90;;;;;;4995846;28;20452;-62
2021/08/22 01:16:01;;;;;;;5.80;5.20;;;17.60;99.90;;;;;;4996307;28;20406;-61
2021/08/22 01:18:28;;;;;;;7.53;5.47;;;17.60;99.90;;;;;;4995910;28;20422;-62
2021/08/22 01:21:12;;;;;;;5.70;5.30;;;17.60;99.90;;;;;;4995558;28;20443;-62
2021/08/22 01:23:53;;;;;;;4.70;4.30;;;17.60;99.90;;;;;;4995732;28;20418;-61
2021/08/22 01:26:24;;;;;;;6.43;4.90;;;17.60;99.90;;;;;;4996114;28;20429;-61
2021/08/22 01:28:51;;;;;;;5.40;4.90;;;17.50;99.90;;;;;;4995318;28;20415;-62
2021/08/22 01:31:19;;;;;;;5.33;4.83;;;17.60;99.90;;;;;;4995413;28;20484;-62
2021/08/22 01:33:47;;;;;;;8.20;4.33;;;17.60;99.90;;;;;;4995410;28;20419;-61
2021/08/22 01:36:13;;;;;;;5.43;4.93;;;17.60;99.90;;;;;;4995381;28;20414;-61
2021/08/22 01:38:39;;;;;;;5.27;4.77;;;17.70;99.90;;;;;;4995031;28;20473;-62
2021/08/22 01:41:06;;;;;;;6.07;5.13;;;17.60;99.90;;;;;;4995251;28;20199;-61
2021/08/22 01:43:36;;;;;;;6.20;5.70;;;17.60;99.90;;;;;;4995345;28;20426;-60
2021/08/22 01:46:02;;;;;;;6.50;5.60;;;17.60;99.90;;;;;;4995252;28;20821;-61
2021/08/22 01:48:28;;;;;;;5.57;5.07;;;17.60;99.90;;;;;;4994894;28;20446;-61
2021/08/22 01:50:59;;;;;;;6.13;5.30;;;17.60;99.90;;;;;;4994959;28;20462;-61
2021/08/22 01:53:26;;;;;;;6.13;5.60;;;17.70;99.90;;;;;;4995076;28;20980;-61
2021/08/22 01:55:55;;;;;;;6.17;5.57;;;17.80;99.90;;;;;;4995082;28;20418;-62
2021/08/22 01:58:22;;;;;;;7.40;5.23;;;17.70;99.90;;;;;;4994978;28;20734;-61
2021/08/22 02:00:49;;;;;;;6.30;5.60;;;17.70;99.90;;;;;;4994755;28;20527;-62
2021/08/22 02:03:40;;;;;;;12.73;5.50;;;17.60;99.90;;;;;;4995103;28;20454;-61
2021/08/22 02:06:39;;;;;;;6.03;4.70;;;17.40;99.90;;;;;;4994282;28;20423;-61
2021/08/22 02:09:09;;;;;;;6.17;5.57;;;17.30;99.90;;;;;;4993331;28;20438;-61
2021/08/22 02:11:43;;;;;;;6.43;4.77;;;17.10;99.90;;;;;;4994709;28;20493;-61
2021/08/22 02:14:12;;;;;;;7.67;7.03;;;17.00;99.90;;;;;;4994695;28;20454;-62
2021/08/22 02:16:40;;;;;;;7.17;6.10;;;17.00;99.90;;;;;;4995001;28;20430;-61
2021/08/22 02:19:06;;;;;;;7.30;6.60;;;17.10;99.90;;;;;;4994477;28;20419;-61
2021/08/22 02:21:32;;;;;;;5.80;5.30;;;17.10;99.90;;;;;;4994487;28;20453;-62
2021/08/22 02:23:58;;;;;;;6.83;6.13;;;17.00;99.90;;;;;;4994563;28;20671;-61
2021/08/22 02:26:24;;;;;;;6.40;5.43;;;16.90;99.90;;;;;;4994531;28;20426;-61
2021/08/22 02:28:57;;;;;;;5.83;4.80;;;16.90;99.90;;;;;;4994126;28;20183;-61
2021/08/22 02:31:26;;;;;;;8.83;4.50;;;16.90;99.90;;;;;;4994316;28;20974;-62
2021/08/22 02:33:52;;;;;;;6.70;5.83;;;16.90;99.90;;;;;;4994360;28;20415;-62
2021/08/22 02:36:17;;;;;;;5.80;5.20;;;16.90;99.90;;;;;;4994283;28;20429;-62
2021/08/22 02:38:43;;;;;;;7.40;5.70;;;16.90;99.90;;;;;;4994021;28;20668;-62
2021/08/22 02:41:08;;;;;;;5.60;5.10;;;16.90;99.90;;;;;;4994207;28;20269;-61
2021/08/22 02:43:34;;;;;;;8.20;5.03;;;16.90;99.90;;;;;;4994112;28;20665;-62
2021/08/22 02:45:59;;;;;;;6.10;5.60;;;16.90;99.90;;;;;;4994179;28;20587;-61
2021/08/22 02:48:25;;;;;;;7.47;6.37;;;16.80;99.90;;;;;;4993817;28;20175;-61
2021/08/22 02:50:50;;;;;;;6.13;4.83;;;16.80;99.90;;;;;;4994033;28;20550;-62
2021/08/22 02:53:16;;;;;;;4.67;4.27;;;16.80;99.90;;;;;;4994068;28;20172;-62
2021/08/22 02:55:41;;;;;;;5.97;5.37;;;16.80;99.90;;;;;;4993978;28;20168;-61
2021/08/22 02:58:07;;;;;;;6.30;5.70;;;16.70;99.90;;;;;;4993906;28;20709;-61
2021/08/22 03:00:32;;;;;;;6.40;5.50;;;16.70;99.90;;;;;;4993518;28;20202;-62
2021/08/22 03:02:58;;;;;;;6.13;5.20;;;16.70;99.90;;;;;;4993845;28;20195;-61
2021/08/22 03:05:23;;;;;;;5.10;4.67;;;16.70;99.90;;;;;;4993753;28;20175;-62
2021/08/22 03:07:49;;;;;;;5.67;5.17;;;16.70;99.90;;;;;;4993790;28;20224;-58
2021/08/22 03:10:14;;;;;;;5.70;5.07;;;16.70;99.90;;;;;;4993319;28;20249;-61
2021/08/22 03:12:40;;;;;;;5.03;4.60;;;16.70;99.90;;;;;;4993639;28;20692;-61
2021/08/22 03:15:07;;;;;;;5.03;4.20;;;16.70;99.90;;;;;;4993584;28;20691;-61
2021/08/22 03:17:32;;;;;;;8.43;4.60;;;16.60;99.90;;;;;;4993319;28;20171;-60
2021/08/22 03:20:00;;;;;;;6.47;5.07;;;16.70;99.90;;;;;;4993234;28;20987;-61
2021/08/22 03:22:25;;;;;;;5.80;4.50;;;16.70;99.90;;;;;;4993438;28;20184;-61
2021/08/22 03:24:51;;;;;;;6.83;5.00;;;16.60;99.90;;;;;;4993380;28;20437;-61
2021/08/22 03:27:16;;;;;;;5.67;5.13;;;16.70;99.90;;;;;;4993397;28;20174;-59
2021/08/22 03:29:42;;;;;;;4.80;4.37;;;16.70;99.90;;;;;;4993101;28;20171;-61
2021/08/22 03:32:08;;;;;;;7.67;5.17;;;16.70;99.90;;;;;;4993224;28;20287;-61
2021/08/22 03:34:33;;;;;;;5.00;4.60;;;16.70;99.90;;;;;;4993257;28;20182;-61
2021/08/22 03:36:59;;;;;;;5.57;5.10;;;16.70;99.90;;;;;;4993185;28;20473;-61
2021/08/22 03:39:24;;;;;;;5.63;4.83;;;16.70;99.90;;;;;;4992887;28;20175;-61
2021/08/22 03:41:50;;;;;;;5.20;4.70;;;16.60;99.90;;;;;;4993064;28;20188;-61
2021/08/22 03:44:15;;;;;;;5.63;5.13;;;16.60;99.90;;;;;;4993113;28;20642;-61
2021/08/22 03:46:41;;;;;;;7.33;4.93;;;16.60;99.90;;;;;;4993211;28;20172;-61
2021/08/22 03:49:06;;;;;;;6.80;5.80;;;16.60;99.90;;;;;;4992759;28;20653;-60
2021/08/22 03:51:32;;;;;;;6.00;5.40;;;16.70;99.90;;;;;;4992295;28;20635;-61
2021/08/22 03:53:57;;;;;;;8.70;5.57;;;16.70;99.90;;;;;;4992908;28;20171;-62
2021/08/22 03:56:23;;;;;;;5.90;5.30;;;16.70;99.90;;;;;;4992974;28;20253;-61
2021/08/22 03:58:48;;;;;;;5.43;4.80;;;16.60;99.90;;;;;;4992633;28;20183;-61
2021/08/22 04:01:14;;;;;;;5.90;5.27;;;16.70;99.90;;;;;;5014868;22;20219;-62
2021/08/22 04:03:40;;;;;;;7.70;5.20;;;16.70;99.90;;;;;;4992687;28;20186;-63
2021/08/22 04:06:07;;;;;;;9.43;6.37;;;16.70;99.90;;;;;;4992734;28;20757;-63
2021/08/22 04:08:35;;;;;;;5.77;5.17;;;16.70;99.90;;;;;;4992478;28;20410;-63
2021/08/22 04:11:01;;;;;;;5.90;5.20;;;16.80;99.90;;;;;;4992575;28;20461;-63
2021/08/22 04:13:27;;;;;;;5.60;5.10;;;16.80;99.90;;;;;;4992773;28;20415;-61
2021/08/22 04:15:53;;;;;;;6.23;5.70;;;16.80;99.90;;;;;;4992644;28;20477;-61
2021/08/22 04:18:18;;;;;;;5.83;5.13;;;16.90;99.90;;;;;;4992704;28;20179;-61
2021/08/22 04:20:44;;;;;;;5.50;5.00;;;17.00;99.90;;;;;;4992377;28;20645;-61
2021/08/22 04:23:10;;;;;;;5.53;5.03;;;17.00;99.90;;;;;;4992565;28;20546;-61
2021/08/22 04:25:36;;;;;;;5.37;4.87;;;17.10;99.90;;;;;;4992631;28;20171;-61
2021/08/22 04:28:01;;;;;;;7.43;5.33;;;17.10;99.90;;;;;;4992557;28;20433;-61
2021/08/22 04:30:27;;;;;;;6.13;5.50;;;17.10;99.90;;;;;;4993894;28;20274;-61
2021/08/22 04:32:52;;;;;;;5.30;4.80;;;17.20;99.90;;;;;;4996507;28;20199;-61
2021/08/22 04:35:18;;;;;;;6.40;5.80;;;17.20;99.90;;;;;;4996495;28;20168;-61
2021/08/22 04:37:43;;;;;;;5.53;5.10;;;17.20;99.90;;;;;;4996701;28;20172;-61
2021/08/22 04:40:10;;;;;;;6.10;5.50;;;17.30;99.90;;;;;;4996187;28;20527;-61
2021/08/22 04:42:35;;;;;;;6.43;5.93;;;17.30;99.90;;;;;;4996101;28;20195;-61
2021/08/22 04:45:01;;;;;;;8.00;7.20;;;17.30;99.90;;;;;;4996033;28;20414;-61
2021/08/22 04:47:27;;;;;;;7.70;5.87;;;17.30;99.90;;;;;;4996425;28;20175;-61
2021/08/22 04:49:53;;;;;;;7.53;6.83;;;17.30;99.90;;;;;;4995968;28;20203;-61
2021/08/22 04:52:18;;;;;;;7.40;6.70;;;17.40;99.90;;;;;;4995755;28;20473;-61
2021/08/22 04:54:44;;;;;;;7.43;6.80;;;17.50;99.90;;;;;;4996461;28;20171;-61
2021/08/22 04:57:09;;;;;;;6.50;5.83;;;17.60;99.90;;;;;;4997170;28;20213;-61
2021/08/22 04:59:35;;;;;;;6.17;5.50;;;17.70;99.90;;;;;;4996399;28;20180;-61
2021/08/22 05:02:00;;;;;;;7.90;6.13;;;17.70;99.90;;;;;;4996389;28;20250;-61
2021/08/22 05:04:28;;;;;;;6.53;5.90;;;17.70;99.90;;;;;;4996741;28;20230;-61
2021/08/22 05:06:54;;;;;;;7.00;6.40;;;17.70;99.90;;;;;;4996619;28;20219;-61
2021/08/22 05:09:20;;;;;;;6.00;5.50;;;17.70;99.90;;;;;;4996541;28;20414;-61
2021/08/22 05:11:45;;;;;;;6.70;6.10;;;17.60;99.90;;;;;;4996533;28;20458;-61
2021/08/22 05:14:11;;;;;;;6.00;5.50;;;17.50;99.90;;;;;;4995606;28;20660;-61
2021/08/22 05:16:37;;;;;;;6.90;6.30;;;17.50;99.90;;;;;;4996506;28;20168;-61
2021/08/22 05:19:02;;;;;;;8.10;7.37;;;17.40;99.90;;;;;;4995497;28;20472;-61
2021/08/22 05:21:28;;;;;;;6.10;5.50;;;17.40;99.90;;;;;;4995715;28;20195;-61
2021/08/22 05:23:54;;;;;;;5.50;4.97;;;17.40;99.90;;;;;;4995836;28;20218;-61
2021/08/22 05:26:19;;;;;;;8.23;5.30;;;17.40;99.90;;;;;;4995694;28;20600;-61
2021/08/22 05:28:45;;;;;;;5.90;5.37;;;17.30;99.90;;;;;;4995148;28;20493;-61
2021/08/22 05:31:10;;;;;;;6.43;5.30;;;17.40;99.90;;;;;;4995375;28;20550;-61
2021/08/22 05:33:36;;;;;;;6.23;5.73;;;17.40;99.90;;;;;;4995522;28;20238;-61
2021/08/22 05:36:15;;;;;;;6.50;4.77;;;17.50;99.90;;;;;;4995393;28;20229;-61
2021/08/22 05:38:41;;;;;;;6.37;5.87;;;17.60;99.90;;;;;;4995197;28;20171;-61
2021/08/22 05:41:06;;;;;;;8.43;5.30;;;17.70;99.90;;;;;;4995197;28;20642;-61
2021/08/22 05:43:32;;;;;;;9.10;5.70;;;17.70;99.90;;;;;;4994822;28;20180;-61
2021/08/22 05:45:57;;;;;;;5.90;5.27;;;17.80;99.90;;;;;;4995272;28;20542;-61
2021/08/22 05:48:23;;;;;;;6.43;5.83;;;17.90;99.90;;;;;;4995056;28;20212;-61
2021/08/22 05:50:48;;;;;;;6.20;5.70;;;17.90;99.90;;;;;;4993740;28;20214;-61
2021/08/22 05:53:14;;;;;;;6.30;5.80;;;18.10;99.90;;;;;;4995099;28;20531;-61
2021/08/22 05:55:39;;;;;;;6.73;6.10;;;18.20;99.90;;;;;;4995145;28;20179;-61
2021/08/22 05:58:05;;;;;;;5.87;5.40;;;18.30;99.90;;;;;;4993673;28;20182;-63
2021/08/22 06:00:30;;;;;;;5.97;5.47;;;18.40;99.90;;;;;;4994803;28;20182;-63
2021/08/22 06:02:56;;;;;;;5.70;5.20;;;18.60;99.90;;;;;;4994880;28;20253;-63
2021/08/22 06:05:21;;;;;;;5.97;5.47;;;18.70;99.90;;;;;;4994847;28;20515;-63
2021/08/22 06:07:47;;;;;;;5.77;5.27;;;18.80;99.90;;;;;;4994955;28;20199;-63
2021/08/22 06:10:12;;;;;;;6.20;5.60;;;18.90;99.90;;;;;;4994598;28;20195;-63
2021/08/22 06:12:38;;;;;;;5.90;5.40;;;19.00;99.90;;;;;;4995203;28;20203;-63
2021/08/22 06:15:04;;;;;;;8.90;8.00;;;18.90;99.90;;;;;;4994739;28;20172;-63
2021/08/22 06:17:29;;;;;;;10.23;5.60;;;18.90;99.90;;;;;;4994777;28;20214;-63
2021/08/22 06:19:55;;;;;;;5.60;5.10;;;19.00;99.90;;;;;;4994357;28;20423;-63
2021/08/22 06:22:20;;;;;;;10.27;6.70;;;19.20;99.90;;;;;;4994524;28;20192;-63
2021/08/22 06:24:46;;;;;;;6.37;5.80;;;19.20;99.90;;;;;;4995170;28;20171;-63
2021/08/22 06:27:14;;;;;;;6.13;5.57;;;19.20;99.90;;;;;;4994879;28;20535;-63
2021/08/22 06:29:39;;;;;;;7.93;5.70;;;19.20;99.90;;;;;;4994221;28;20648;-63
2021/08/22 06:32:05;;;;;;;7.13;6.43;;;19.20;99.90;;;;;;4994306;28;20553;-63
2021/08/22 06:34:31;;;;;;;7.10;6.40;;;19.30;99.90;;;;;;4994413;28;20168;-63
2021/08/22 06:36:56;;;;;;;6.37;5.87;;;19.30;99.90;;;;;;4994339;28;20191;-63
2021/08/22 06:39:22;;;;;;;6.97;6.37;;;19.40;99.90;;;;;;4994047;28;20178;-63
2021/08/22 06:41:47;;;;;;;5.30;4.90;;;19.60;99.90;;;;;;4994077;28;20199;-63
2021/08/22 06:44:13;;;;;;;5.97;5.20;;;19.80;99.90;;;;;;4994222;28;20555;-63
2021/08/22 06:46:40;;;;;;;6.63;5.80;;;19.90;99.90;;;;;;4994149;28;20176;-63
2021/08/22 06:49:06;;;;;;;6.43;5.67;;;19.90;99.90;;;;;;4993931;28;20617;-63
2021/08/22 06:51:31;;;;;;;6.30;5.70;;;19.90;99.90;;;;;;4993514;28;20553;-63
2021/08/22 06:53:57;;;;;;;5.90;5.40;;;19.90;99.90;;;;;;4993742;28;20195;-63
2021/08/22 06:56:22;;;;;;;7.20;6.60;;;19.90;99.90;;;;;;4992711;28;20629;-63
2021/08/22 06:58:48;;;;;;;7.63;6.73;;;19.90;99.90;;;;;;4993675;28;20335;-63
2021/08/22 07:01:15;;;;;;;7.63;6.90;;;20.00;99.90;;;;;;4993634;28;20179;-63
2021/08/22 07:03:41;;;;;;;9.10;6.10;;;20.10;99.90;;;;;;4993805;28;20640;-63
2021/08/22 07:06:06;;;;;;;6.40;5.47;;;20.20;99.90;;;;;;4993749;28;20455;-63
2021/08/22 07:08:32;;;;;;;6.57;6.00;;;20.20;99.90;;;;;;4993435;28;20267;-63
2021/08/22 07:10:57;;;;;;;5.93;5.53;;;20.30;99.90;;;;;;4993573;28;20239;-63
2021/08/22 07:13:23;;;;;;;5.93;5.43;;;20.30;99.90;;;;;;4993603;28;20215;-63
2021/08/22 07:15:48;;;;;;;7.83;7.13;;;20.20;99.90;;;;;;4993500;28;20182;-63
2021/08/22 07:18:14;;;;;;;6.17;5.67;;;20.20;99.90;;;;;;4993399;28;20587;-63
2021/08/22 07:20:39;;;;;;;6.53;6.03;;;20.20;99.90;;;;;;4992067;28;20307;-63
2021/08/22 07:23:05;;;;;;;6.03;5.53;;;20.10;99.90;;;;;;4993466;28;20191;-62
2021/08/22 07:25:30;;;;;;;5.83;5.33;;;20.20;99.90;;;;;;4993393;28;20203;-61
2021/08/22 07:27:56;;;;;;;7.23;6.57;;;20.20;99.90;;;;;;4993375;28;20190;-61
2021/08/22 07:30:22;;;;;;;6.73;6.13;;;20.20;99.90;;;;;;4993027;28;20207;-61
2021/08/22 07:32:48;;;;;;;6.27;5.77;;;20.10;99.90;;;;;;4993185;28;20238;-61
2021/08/22 07:35:14;;;;;;;6.13;5.57;;;20.00;99.90;;;;;;4993134;28;20423;-61
2021/08/22 07:37:39;;;;;;;6.90;6.27;;;20.00;99.90;;;;;;4993231;28;20419;-61
2021/08/22 07:40:06;;;;;;;7.60;7.00;;;20.00;99.90;;;;;;4992794;28;20171;-61
2021/08/22 07:42:31;;;;;;;6.70;6.13;;;20.10;99.90;;;;;;4992883;28;20211;-61
2021/08/22 07:44:57;;;;;;;6.43;5.93;;;20.10;99.90;;;;;;4992320;28;20820;-61
2021/08/22 07:47:23;;;;;;;6.73;6.10;;;20.20;99.90;;;;;;4993021;28;20172;-61
2021/08/22 07:49:48;;;;;;;6.00;5.50;;;20.40;99.90;;;;;;4992739;28;20179;-61
2021/08/22 07:52:14;;;;;;;6.33;5.83;;;20.70;99.90;;;;;;4992650;28;20199;-61
2021/08/22 07:54:40;;;;;;;8.40;7.10;;;21.10;99.90;;;;;;4992989;28;20427;-61
2021/08/22 07:57:05;;;;;;;9.40;6.70;;;21.30;99.90;;;;;;4992931;28;20168;-61
2021/08/22 07:59:31;;;;;;;7.20;6.60;;;21.30;99.90;;;;;;4992505;28;20176;-61
2021/08/22 08:01:57;;;;;;;6.83;6.20;;;21.40;99.90;;;;;;4992653;28;20222;-61
2021/08/22 08:04:23;;;;;;;7.93;6.40;;;21.40;99.90;;;;;;4992054;28;20172;-61
2021/08/22 08:06:48;;;;;;;6.00;5.50;;;21.40;99.90;;;;;;4992764;28;20661;-61
2021/08/22 08:09:14;;;;;;;8.73;8.03;;;21.50;99.90;;;;;;4992455;28;20419;-61
2021/08/22 08:11:39;;;;;;;6.20;5.70;;;21.60;99.90;;;;;;4992557;28;20249;-61
2021/08/22 08:14:05;;;;;;;5.80;5.30;;;21.80;99.90;;;;;;4992708;28;20230;-61
2021/08/22 08:16:31;;;;;;;7.30;5.50;;;22.00;99.90;;;;;;4992646;28;20175;-61
2021/08/22 08:18:56;;;;;;;6.60;6.10;;;22.20;99.90;;;;;;4992446;28;20175;-61
2021/08/22 08:21:22;;;;;;;6.10;5.60;;;22.50;99.90;;;;;;4992497;28;20485;-61
2021/08/22 08:23:47;;;;;;;6.53;6.10;;;22.50;99.90;;;;;;4992622;28;20226;-61
2021/08/22 08:26:13;;;;;;;6.93;6.40;;;22.30;99.90;;;;;;4992520;28;20645;-61
2021/08/22 08:28:39;;;;;;;6.20;5.70;;;22.20;99.90;;;;;;4992183;28;20176;-61
2021/08/22 08:31:05;;;;;;;8.17;6.70;;;22.40;99.90;;;;;;4992374;28;20195;-61
2021/08/22 08:33:31;;;;;;;7.13;6.43;;;22.40;99.90;;;;;;4992532;28;20418;-61
2021/08/22 08:35:56;;;;;;;6.53;6.03;;;22.30;99.90;;;;;;4992478;28;20168;-61
2021/08/22 08:38:22;;;;;;;6.37;5.63;;;22.40;99.90;;;;;;4992337;28;20175;-61
2021/08/22 08:40:47;;;;;;;7.47;6.83;;;22.60;99.90;;;;;;4992289;28;20175;-61
2021/08/22 08:43:17;;;;;;;6.57;5.97;;;22.60;99.90;;;;;;4992300;28;20326;-61
2021/08/22 08:46:01;;;;;;;5.90;5.33;;;22.50;99.90;;;;;;4992410;28;20179;-61
2021/08/22 08:48:30;;;;;;;6.27;5.77;;;22.60;99.90;;;;;;4990857;28;20427;-61
2021/08/22 08:51:14;;;;;;;7.07;5.63;;;22.90;99.90;;;;;;4992264;28;20463;-61
2021/08/22 08:53:47;;;;;;;7.83;5.93;;;23.10;99.90;;;;;;4992361;28;20430;-61
2021/08/22 08:56:17;;;;;;;6.77;6.17;;;23.10;99.90;;;;;;4992331;28;20419;-61
2021/08/22 08:58:42;;;;;;;6.87;6.17;;;23.30;99.90;;;;;;4992044;28;20430;-61
2021/08/22 09:01:08;;;;;;;13.03;5.30;;;23.20;99.90;;;;;;4992014;28;20433;-62
2021/08/22 09:03:41;;;;;;;5.40;5.00;;;23.00;99.90;;;;;;4992247;28;20172;-61
2021/08/22 09:06:34;;;;;;;5.73;5.27;;;23.20;99.90;;;;;;4992159;28;20179;-61
2021/08/22 09:09:37;;;;;;;6.57;6.07;;;23.10;99.90;;;;;;4991879;28;21031;-61
2021/08/22 09:12:56;;;;;;;5.90;5.40;;;23.10;99.90;;;;;;4991935;28;20465;-61
2021/08/22 09:15:46;;;;;;;6.93;6.43;;;23.00;99.90;;;;;;4928090;28;20431;-61
2021/08/22 09:18:29;;;;;;;6.20;5.70;;;22.90;99.90;;;;;;4995650;28;20415;-61
2021/08/22 09:21:37;;;;;;;8.03;6.17;;;22.60;99.90;;;;;;4995750;28;20505;-61
2021/08/22 09:24:30;;;;;;;5.90;5.40;;;22.40;99.90;;;;;;4995704;28;20957;-61
2021/08/22 09:27:33;;;;;;;5.70;5.30;;;22.40;99.90;;;;;;4995521;28;20411;-61
2021/08/22 09:30:17;;;;;;;7.23;6.63;;;22.50;99.90;;;;;;4995181;28;20429;-61
2021/08/22 09:33:20;;;;;;;8.27;6.00;;;22.80;99.90;;;;;;4995485;28;20958;-61
2021/08/22 09:36:23;;;;;;;5.83;5.43;;;23.10;99.90;;;;;;4995451;28;20406;-61
2021/08/22 09:39:23;;;;;;;6.17;5.57;;;23.10;99.90;;;;;;4993892;28;20426;-61
2021/08/22 09:42:01;;;;;;;6.27;5.70;;;23.40;99.90;;;;;;4995297;28;20450;-61
2021/08/22 09:45:03;;;;;;;7.50;6.03;;;23.70;99.90;;;;;;4995359;28;20414;-62
2021/08/22 09:48:16;;;;;;;6.23;5.60;;;23.70;99.90;;;;;;4995242;28;20414;-61
2021/08/22 09:51:18;;;;;;;6.70;6.20;;;23.70;99.90;;;;;;4934725;29;20508;-61
2021/08/22 09:54:13;;;;;;;6.40;5.80;;;23.70;99.90;;;;;;4935027;29;20425;-61
2021/08/22 09:57:16;;;;;;;5.50;5.10;;;23.60;99.90;;;;;;4989964;28;20418;-61
2021/08/22 10:00:19;;;;;;;6.13;5.63;;;23.50;99.90;;;;;;4994733;28;20453;-61
2021/08/22 10:02:53;;;;;;;6.27;4.90;;;23.70;99.90;;;;;;4995426;28;20446;-61
2021/08/22 10:05:33;;;;;;;6.73;6.20;;;23.50;99.90;;;;;;4994915;28;20422;-61
2021/08/22 10:08:08;;;;;;;6.93;6.43;;;23.40;99.90;;;;;;4994742;28;20414;-61
2021/08/22 10:10:40;;;;;;;6.53;6.00;;;23.10;99.90;;;;;;4994594;28;20476;-62
2021/08/22 10:13:05;;;;;;;6.80;6.20;;;22.80;99.90;;;;;;4994150;28;20435;-62
2021/08/22 10:15:31;;;;;;;6.73;6.17;;;22.70;99.90;;;;;;4994801;28;20419;-62
2021/08/22 10:17:57;;;;;;;6.70;6.10;;;22.40;99.90;;;;;;4994863;28;20585;-62
2021/08/22 10:20:39;;;;;;;7.10;6.50;;;22.30;99.90;;;;;;4994287;28;20732;-61
2021/08/22 10:23:05;;;;;;;6.83;6.33;;;22.10;99.90;;;;;;4994690;28;20191;-62
2021/08/22 10:25:47;;;;;;;7.80;7.00;;;22.00;99.90;;;;;;4994652;28;20497;-60
2021/08/22 10:28:12;;;;;;;8.50;6.80;;;22.00;99.90;;;;;;4993585;28;20171;-62
2021/08/22 10:30:42;;;;;;;7.33;6.67;;;21.90;99.90;;;;;;4994139;28;20446;-61
2021/08/22 10:33:08;;;;;;;7.60;6.87;;;21.60;99.90;;;;;;4994355;28;20238;-62
2021/08/22 10:35:34;;;;;;;7.60;7.00;;;21.20;99.90;;;;;;4994371;28;20496;-62
2021/08/22 10:38:38;;;;;;;9.10;7.50;;;21.00;99.90;;;;;;4994250;28;20449;-63
2021/08/22 10:41:03;;;;;;;8.20;7.60;;;20.90;99.90;;;;;;4953166;29;20184;-62
2021/08/22 10:43:31;;;;;;;9.53;8.47;;;20.90;99.90;;;;;;4952396;29;20435;-61
2021/08/22 10:45:57;;;;;;;8.03;7.33;;;20.90;99.90;;;;;;4972725;28;20195;-63
2021/08/22 10:48:22;;;;;;;8.33;7.63;;;21.00;99.90;;;;;;4993948;28;20418;-63
2021/08/22 10:50:56;;;;;;;7.33;6.63;;;21.00;99.90;;;;;;4993846;28;20258;-63
2021/08/22 10:53:43;;;;;;;8.40;7.70;;;21.00;99.90;;;;;;4993697;28;20167;-63
2021/08/22 10:56:21;;;;;;;7.87;7.20;;;21.10;99.90;;;;;;4994121;28;20430;-61
2021/08/22 10:59:06;;;;;;;8.63;7.93;;;21.20;99.90;;;;;;4993627;28;20464;-62
2021/08/22 11:01:33;;;;;;;9.07;8.27;;;21.30;99.90;;;;;;4993698;28;20473;-61
2021/08/22 11:04:11;;;;;;;9.03;8.10;;;21.30;99.90;;;;;;4993865;28;20441;-61
2021/08/22 11:06:58;;;;;;;8.07;7.40;;;21.30;99.90;;;;;;4993727;28;20436;-63
2021/08/22 11:09:43;;;;;;;8.43;7.60;;;21.40;99.90;;;;;;4991514;28;20427;-62
2021/08/22 11:12:25;;;;;;;8.87;8.07;;;21.60;99.90;;;;;;4993464;28;20473;-61
2021/08/22 11:14:51;;;;;;;7.30;6.70;;;21.70;99.90;;;;;;4992745;28;20814;-61
2021/08/22 11:17:16;;;;;;;8.87;8.07;;;21.70;99.90;;;;;;4993580;28;20415;-62
2021/08/22 11:19:42;;;;;;;7.40;6.77;;;21.70;99.90;;;;;;4993251;28;20203;-61
2021/08/22 11:22:25;;;;;;;7.37;6.77;;;21.70;99.90;;;;;;4993375;28;20199;-62
2021/08/22 11:24:52;;;;;;;6.93;6.33;;;21.80;99.90;;;;;;4993491;28;20183;-62
2021/08/22 11:27:23;;;;;;;4.90;4.50;;;21.60;99.90;;;;;;4993402;28;20419;-62
2021/08/22 11:29:57;;;;;;;6.17;5.13;;;21.00;99.90;;;;;;4993162;28;20636;-61
2021/08/22 11:32:22;;;;;;;5.67;4.37;;;20.70;99.90;;;;;;4993297;28;20975;-61
2021/08/22 11:34:48;;;;;;;4.90;4.50;;;20.40;99.90;;;;;;4993274;28;20426;-61
2021/08/22 11:37:18;;;;;;;4.80;4.40;;;20.40;99.90;;;;;;4993183;28;20175;-61
2021/08/22 11:39:43;;;;;;;6.33;5.73;;;20.50;99.90;;;;;;4992713;28;20659;-61
2021/08/22 11:42:09;;;;;;;4.70;4.30;;;20.70;99.90;;;;;;4993105;28;20474;-61
2021/08/22 11:44:35;;;;;;;4.27;3.90;;;20.80;99.90;;;;;;4993038;28;20302;-61
2021/08/22 11:47:01;;;;;;;4.00;3.70;;;20.90;99.90;;;;;;4993124;28;20506;-61
2021/08/22 11:49:27;;;;;;;5.03;4.50;;;21.10;99.90;;;;;;4992705;28;20172;-61
2021/08/22 11:51:55;;;;;;;4.87;4.27;;;21.10;99.90;;;;;;4992515;28;20195;-61
2021/08/22 11:54:21;;;;;;;4.10;3.70;;;21.00;99.90;;;;;;4992945;28;20415;-61
2021/08/22 11:56:47;;;;;;;4.50;4.10;;;21.00;99.90;;;;;;4993036;28;20410;-61
2021/08/22 11:59:27;;;;;;;3.90;3.60;;;20.90;99.90;;;;;;4992606;28;20923;-61
2021/08/22 12:02:22;;;;;;;4.40;3.80;;;20.70;99.90;;;;;;4992714;28;20549;-61
2021/08/22 12:04:48;;;;;;;4.23;3.90;;;20.60;99.90;;;;;;4992759;28;20434;-61
2021/08/22 12:07:18;;;;;;;4.10;3.80;;;20.60;99.90;;;;;;4992859;28;20908;-61
2021/08/22 12:09:50;;;;;;;3.57;3.27;;;20.50;99.90;;;;;;4992536;28;20178;-61
2021/08/22 12:12:23;;;;;;;4.03;3.47;;;20.60;99.90;;;;;;4992527;28;20466;-61
2021/08/22 12:14:49;;;;;;;3.93;3.63;;;20.70;99.90;;;;;;4992497;28;20557;-61
2021/08/22 12:17:24;;;;;;;3.63;3.33;;;20.60;99.90;;;;;;4992637;28;20473;-61
2021/08/22 12:19:50;;;;;;;3.13;2.93;;;20.50;99.90;;;;;;4992653;28;20422;-61
2021/08/22 12:22:16;;;;;;;4.93;3.50;;;20.30;99.90;;;;;;4992530;28;20822;-61
2021/08/22 12:24:48;;;;;;;4.77;4.33;;;20.10;99.90;;;;;;4991209;28;20430;-61
2021/08/22 12:27:29;;;;;;;3.60;3.30;;;20.10;99.90;;;;;;4992564;28;20172;-61
2021/08/22 12:30:08;;;;;;;3.23;2.90;;;19.90;99.90;;;;;;4992277;28;20414;-61
2021/08/22 12:32:37;;;;;;;3.23;3.03;;;19.70;99.90;;;;;;4992455;28;20451;-61
2021/08/22 12:35:07;;;;;;;2.73;2.50;;;19.40;99.90;;;;;;4992327;28;20417;-61
2021/08/22 12:37:33;;;;;;;2.93;2.73;;;19.40;99.90;;;;;;4992760;28;20431;-62
2021/08/22 12:40:05;;;;;;;3.33;3.03;;;19.40;99.90;;;;;;4992112;28;20835;-62
2021/08/22 12:42:31;;;;;;;5.00;3.33;;;19.50;99.90;;;;;;4992151;28;20187;-62
2021/08/22 12:44:57;;;;;;;2.87;2.67;;;19.60;99.90;;;;;;4992323;28;20445;-62
2021/08/22 12:47:24;;;;;;;3.23;2.53;;;19.80;99.90;;;;;;4992310;28;20500;-62
2021/08/22 12:49:49;;;;;;;3.07;2.87;;;19.80;99.90;;;;;;4991904;28;20427;-62
2021/08/22 12:52:16;;;;;;;2.27;2.13;;;19.80;99.90;;;;;;4995506;28;21041;-62
2021/08/22 12:54:42;;;;;;;2.33;2.20;;;19.80;99.90;;;;;;4996266;28;20179;-62
2021/08/22 12:57:08;;;;;;;3.87;3.40;;;19.90;99.90;;;;;;4996350;28;20474;-63
2021/08/22 12:59:33;;;;;;;2.47;2.23;;;20.00;99.90;;;;;;4994601;28;20513;-63